KVLD/VLD METAR and TAF weather

Enter ICAO airport designator
Station Type Date Time Source
KVLD METAR 2019/06/17 12:53 UTC NOAA

KVLD 171253Z 16008KT 10SM CLR 25/22 A3007 RMK AO2 SLP187 T02500217


Station Type Date Time Source
KVLD Decoded METAR 2019/06/17 12:53 UTC NOAA

VALDOSTA REGIONAL AIRPORT, GA, United States (KVLD) 30-47N 083-16W
Jun 17, 2019 - 08:53 AM EDT / 2019.06.17 1253 UTC
Wind: from the SSE (160 degrees) at 9 MPH (8 KT):0
Visibility: 10 mile(s):0
Sky conditions: clear
Temperature: 77.0 F (25.0 C)
Dew Point: 71.1 F (21.7 C)
Relative Humidity: 81%
Pressure (altimeter): 30.07 in. Hg (1018 hPa)
ob: KVLD 171253Z 16008KT 10SM CLR 25/22 A3007 RMK AO2 SLP187 T02500217
cycle: 13

Station Type Date Time Source
KVLD TAF 2019/06/17 12:24 UTC NOAA

TAF KVLD 171120Z 1712/1812 15006KT P6SM SCT050
FM171900 15006KT P6SM -TSRA BKN050CB BKN250
FM180000 16004KT P6SM BKN100

Example: see airport list